AirNav   MODERNIZE NOT PRIVATIZE ATC
 
 1726 users online  

6MA8 Acushnet River Seaplane Base
New Bedford, Massachusetts, USA

GOING TO NEW BEDFORD?


FAA INFORMATION EFFECTIVE 20 JULY 2017

Location

FAA Identifier: 6MA8
Lat/Long: 41-38-50.3740N / 070-55-03.1370W
41-38.839567N / 070-55.052283W
41.6473261 / -70.9175381
(estimated)
Elevation: 0 ft. / 0 m (estimated)
Variation: 16W (1990)
From city: 1 mile NE of NEW BEDFORD, MA
Time zone: UTC -4 (UTC -5 during Standard Time)
Zip code: 02746

Seaplane Base Operations

Seaplane Base use: Private use. Permission required prior to landing
Activation date: 02/1992
Control tower: no
ARTCC: BOSTON CENTER
FSS: BRIDGEPORT FLIGHT SERVICE STATION
Attendance: UNATNDD
Segmented circle: no

Seaplane Base Communications

WX ASOS at EWB (2.5 nm NW): PHONE 508-992-0195
WX ASOS at TAN (14 nm N): 132.675 (508-824-5005)
WX ASOS at UUU (18 nm SW): 132.075 (401-846-5910)
WX ASOS at PYM (18 nm NE): 135.625 (508-746-8003)

Nearby radio navigation aids

VOR radial/distance  VOR name  Freq  Var
MVYr333/20.4MARTHAS VINEYARD VOR/DME114.5015W
PVDr115/23.4PROVIDENCE VOR/DME115.6014W

 
NDB name  Hdg/Dist  Freq  Var  ID
TAUNTON178/14.422716WTAN - .- -.
MARSHFIELD218/29.136816WIMR .. -- .-.

Seaplane Base Services

Runway Information

Runway 2/20

Dimensions: 3500 x 200 ft. / 1067 x 61 m
Surface: water
RUNWAY 2  RUNWAY 20
Traffic pattern: leftleft

Runway 16/34

Dimensions: 3500 x 200 ft. / 1067 x 61 m
Surface: water
RUNWAY 16  RUNWAY 34
Traffic pattern: leftleft

Seaplane Base Ownership and Management from official FAA records

Ownership: Privately-owned
Owner: ISLAND SHUTTLE, INC.
123 R PURCHASE ST
MIDDLEBORO, MA 02346
Phone 508-947-9339
Manager: GID ALAN FISHER
123 R PURCHASE ST
MIDDLEBORO, MA 02346
Phone 508-947-9339

Instrument Procedures

There are no published instrument procedures at 6MA8.

Some nearby airports with instrument procedures:

KEWB - New Bedford Regional Airport (3 nm NW)
KTAN - Taunton Municipal Airport - King Field (14 nm N)
KFMH - Cape Cod Coast Guard Air Station (18 nm E)
KUUU - Newport State Airport (18 nm SW)
KPYM - Plymouth Municipal Airport (18 nm NE)
 
Loc | Ops | Rwys | IFR | FBO | Links
Com | Nav | Svcs | Stats | Notes


 
Area around 6MA8 (Acushnet River Seaplane Base)
 
Road maps at: MapQuest Bing Google
 
Aerial photo
No photo
 
Sectional chart

 
Airport distance calculator
Flying to Acushnet River Seaplane Base? Find the distance to fly.

From to 6MA8

Sunrise and sunset
Times for 24-Jul-2017
 Local
(UTC-4)
 Zulu
(UTC)
Morning civil twilight04:5908:59
Sunrise05:3109:31
Sunset20:0900:09
Evening civil twilight20:4100:41

Current date and time
Zulu (UTC)  24-Jul-2017 18:09:44
Local (UTC-4)  24-Jul-2017 14:09:44
 
METAR
KEWB 
3nm NW 
241753Z 03006KT 5SM -RA BR OVC009 16/15 A2982 RMK AO2 CIG 005V011 SLP098 P0005 60020 T01610150 10167 20150 56015
KTAN 
15nm N 
241759Z AUTO VRB06KT 4SM -RA BR BKN008 OVC013 14/13 A2984 RMK AO2 CIG 005V009 P0001 T01440133
KUUU 
18nm W 
241804Z AUTO 03010KT 3SM -RA BR OVC006 16/16 A2982 RMK AO2 CIG 005V009 P0001 T01610161
KFMH 
18nm E 
241755Z AUTO RMK AO2 PWINO FZRANO TSNO
KPYM 
18nm NE 
241752Z AUTO 04013G18KT 6SM -RA BR BKN010 OVC017 15/13 A2985 RMK AO2 SLP108 P0009 60034 T01500133 10172 20150 56009 TSNO
TAF
KFMH 
18nm E 
241743Z 2418/2518 07010KT 3SM -RA BR OVC020 FM241900 07011G22KT 2SM -RA BR OVC015 FM242200 04008KT 3SM -SHRA BR OVC008 FM250100 02008KT P6SM OVC008 FM251700 02011G18KT P6SM BKN020 AMD NOT SKED
NOTAMs
Click for the latest NOTAMs
NOTAMs are issued by the DoD/FAA and will open in a separate window not controlled by AirNav.

 

 
 

Would you like to see your business listed on this page?

 If your business provides an interesting product or service to pilots, flight crews, aircraft, or users of the Acushnet River Seaplane Base, you should consider listing it here.  To start the listing process, click on the button below
 
Add a business
 

Other Pages about Acushnet River Seaplane Base

Update a link
 
Copyright © AirNav, LLC. All rights reserved. Privacy Policy  Contact